Salalah, Oman

6:44 PM GST on September 02, 2014 (GMT +0400)
Salalah | Change Station
CLOSE
Current Station
Airport
Location: Salalah,
Elevation: 66 ft
Nearby Weather Stations

Elev 66 ft 17.04 °N, 54.09 °E | Updated 54 minutes ago

Mostly Cloudy
Mostly Cloudy
82 °F
Feels Like 90 °F
N
12
Wind Variable Wind from SSW

Today
High -- | Low -- °F
--% Chance of Precip.
Yesterday
High -- | Low -- °F
Precip. -- in
6:10 AM 6:36 PM
First Quarter, 52% visible
Pressure 29.59 in
Visibility 4.3 miles
Clouds Scattered Clouds 1200 ft
Mostly Cloudy 2500 ft
Heat Index 90 °F
Dew Point 75 °F
Humidity 79%
Rainfall 0.00 in
Snow Depth Not available.
UV 0 out of 12
Pollen Not available.
Air Quality Not available.
Flu Activity Not available.
METAR OOSA 021350Z 20010KT 170V230 7000 SCT012 BKN025 28/24 Q1002 NOSIG

More Conditions Fewer Conditions

Pressure 29.59 in
Visibility 4.3 miles
Clouds Scattered Clouds 1200 ft
Mostly Cloudy 2500 ft
Heat Index 90 °F
Dew Point 75 °F
Humidity 79%
Rainfall 0.00 in
Snow Depth Not available.
UV 0 out of 12
Pollen Not available.
Air Quality Not available.
Flu Activity Not available.
METAR OOSA 021350Z 20010KT 170V230 7000 SCT012 BKN025 28/24 Q1002 NOSIG

More Conditions Fewer Conditions

10-Day Weather Forecast

Almanac

Astronomy

Sep. 02, 2014 Rise Set
Actual Time 6:10 AM GST 6:36 PM GST
Civil Twilight 5:48 AM GST 6:58 PM GST
Nautical Twilight 5:22 AM GST 7:23 PM GST
Astronomical Twilight 4:56 AM GST 7:49 PM GST
Moon 12:31 PM GST No Moon Set
Length of Visible Light 13h 10m
Length of Day
12h 26m
Tomorrow will be 0m 56s shorter.
First Quarter, 52% of the Moon is Illuminated
Today
First Quarter
Sep 8
Full
Sep 15
Last Quarter
Sep 24
New
Oct 1
First Quarter

Today's Extremes

Country Highs Country Lows

Community

WunderPhotos

Upload Photos

1,749,682 photos uploaded!

WunderBlogs® & News

Nearby

Snow Depth

Not available.

Earthquake Activity

City Distance Mag. Time & Date
No recent earthquake activity has been reported nearby.
Minimum magnitude displayed is 2.5.

Coastal Water Temperatures

Place Temperature
No Stations Reporting

Nearby Weather Stations